PH-0077 weather

Clark International Airport South Ramp Heliport
Mabalacat City, Philippines

Public forecast

Using degrees Celsius for public forecast. Weather courtesy of forecast.io.

METAR (pilot weather report)

Closest report is Diosdado Macapagal International Airport, 1.2 nm (2.2 km) NE. Retrieved 2019/07/22 10:00 UTC (53 minutes ago):

RPLC 221000Z 34004KT 7000 SCT020 OVC100 26/24 Q1007 NOSIG RMK A2974

TAF (pilot weather forecast)

Closest forecast is Diosdado Macapagal International Airport, 1.2 nm (2.2 km) NE. Retrieved 2019/07/22 06:03 UTC (5 hours ago):

TAF RPLC 220500Z 2206/2312 22010KT 7000 SCT020 BKN100 TX31/2206Z TN25/2221Z TEMPO 2206/2212 34008KT 6000 -TSRA FEW015CB SCT020 OVC090